Time;durP1;ratioP1;P1;durP2;ratioP2;P2;SDS_P1;SDS_P2;PMS_P1;PMS_P2;Temp;Humidity;BMP_temperature;BMP_pressure;BME280_temperature;BME280_humidity;BME280_pressure;Samples;Min_cycle;Max_cycle;Signal;HPM_P1;HPM_P2
2024/01/02 00:00:37;;;;;;;12.02;3.15;;;6.70;99.90;;;;;;4994851;28;20112;-86
2024/01/02 00:03:03;;;;;;;12.38;3.15;;;5.90;99.90;;;;;;4993437;28;20044;-86
2024/01/02 00:05:28;;;;;;;10.90;3.20;;;5.70;99.90;;;;;;5007001;28;20116;-85
2024/01/02 00:07:54;;;;;;;12.40;3.00;;;7.30;99.90;;;;;;5005968;28;20338;-85
2024/01/02 00:10:20;;;;;;;9.38;2.75;;;7.10;99.90;;;;;;5010331;28;20471;-85
2024/01/02 00:12:46;;;;;;;9.75;3.10;;;5.70;99.90;;;;;;4993080;28;20042;-86
2024/01/02 00:15:11;;;;;;;10.02;3.05;;;5.70;99.90;;;;;;4991115;28;20042;-85
2024/01/02 00:17:37;;;;;;;10.23;2.88;;;5.60;99.90;;;;;;5003805;28;20116;-85
2024/01/02 00:20:05;;;;;;;9.88;3.28;;;6.20;99.90;;;;;;5020687;28;20045;-85
2024/01/02 00:22:31;;;;;;;10.50;2.88;;;5.60;99.90;;;;;;5010833;28;20124;-86
2024/01/02 00:24:57;;;;;;;9.90;2.92;;;5.60;99.90;;;;;;4992489;28;20415;-85
2024/01/02 00:27:23;;;;;;;11.48;3.00;;;5.80;99.90;;;;;;4976816;28;20038;-85
2024/01/02 00:29:48;;;;;;;9.98;2.60;;;5.60;99.90;;;;;;4988486;28;20049;-85
2024/01/02 00:32:14;;;;;;;9.68;2.70;;;6.50;99.90;;;;;;5009447;28;20029;-85
2024/01/02 00:34:40;;;;;;;10.25;3.20;;;7.00;99.90;;;;;;4985890;28;20046;-85
2024/01/02 00:37:06;;;;;;;9.90;2.85;;;5.70;99.90;;;;;;4996238;28;20056;-85
2024/01/02 00:39:32;;;;;;;10.10;3.15;;;5.60;99.90;;;;;;4989804;28;20038;-85
2024/01/02 00:41:57;;;;;;;8.23;2.55;;;5.80;99.90;;;;;;5007526;28;20096;-85
2024/01/02 00:44:23;;;;;;;8.90;2.88;;;7.20;99.90;;;;;;4993882;28;20541;-85
2024/01/02 00:46:48;;;;;;;11.70;2.75;;;6.60;99.90;;;;;;4991771;28;20499;-86
2024/01/02 00:49:14;;;;;;;10.38;2.65;;;5.70;99.90;;;;;;4991718;28;20048;-85
2024/01/02 00:51:40;;;;;;;9.75;2.80;;;5.90;99.90;;;;;;4990884;28;20645;-85
2024/01/02 00:54:06;;;;;;;13.07;3.45;;;5.90;99.90;;;;;;5010670;28;20168;-85
2024/01/02 00:56:31;;;;;;;9.75;2.70;;;5.90;99.90;;;;;;4990590;28;20034;-85
2024/01/02 00:58:57;;;;;;;9.13;2.75;;;5.70;99.90;;;;;;4982549;28;20068;-85
2024/01/02 01:01:23;;;;;;;9.10;2.50;;;6.50;99.90;;;;;;4982418;28;20072;-85
2024/01/02 01:03:49;;;;;;;10.27;2.53;;;6.40;99.90;;;;;;4993517;28;20038;-85
2024/01/02 01:06:14;;;;;;;9.50;2.53;;;6.70;99.90;;;;;;4976235;28;20043;-86
2024/01/02 01:08:40;;;;;;;6.93;2.40;;;6.60;99.90;;;;;;4987680;28;20041;-85
2024/01/02 01:11:06;;;;;;;12.50;2.90;;;6.20;99.90;;;;;;4978922;28;20490;-85
2024/01/02 01:13:31;;;;;;;10.43;2.53;;;5.90;99.90;;;;;;5026469;28;20589;-85
2024/01/02 01:15:57;;;;;;;8.48;2.45;;;6.00;99.90;;;;;;4975789;28;20538;-85
2024/01/02 01:18:22;;;;;;;9.95;2.30;;;5.90;99.90;;;;;;4994553;28;20475;-85
2024/01/02 01:20:48;;;;;;;8.27;2.20;;;6.40;99.90;;;;;;4991375;28;20458;-85
2024/01/02 01:23:14;;;;;;;9.05;2.30;;;6.00;99.90;;;;;;5004516;28;20136;-85
2024/01/02 01:25:39;;;;;;;7.95;2.13;;;6.00;99.90;;;;;;4990584;28;20038;-85
2024/01/02 01:28:05;;;;;;;5.40;1.80;;;6.00;99.90;;;;;;5006606;28;20042;-86
2024/01/02 01:30:31;;;;;;;9.30;2.13;;;7.00;99.90;;;;;;4990076;28;20522;-86
2024/01/02 01:32:57;;;;;;;9.13;2.20;;;6.00;99.90;;;;;;4995165;28;20038;-85
2024/01/02 01:35:22;;;;;;;8.15;2.35;;;6.00;99.90;;;;;;4991096;28;20115;-85
2024/01/02 01:37:48;;;;;;;8.65;2.22;;;7.10;99.90;;;;;;4971098;28;20104;-86
2024/01/02 01:40:14;;;;;;;9.23;2.30;;;6.80;99.90;;;;;;4984149;28;20041;-85
2024/01/02 01:42:39;;;;;;;9.50;2.20;;;5.80;99.90;;;;;;5009701;28;20050;-85
2024/01/02 01:45:05;;;;;;;6.63;2.10;;;6.40;99.90;;;;;;4991463;28;20038;-85
2024/01/02 01:47:31;;;;;;;9.20;2.00;;;5.80;99.90;;;;;;4993604;28;20034;-85
2024/01/02 01:49:58;;;;;;;7.80;2.17;;;5.80;99.90;;;;;;4999063;28;20048;-85
2024/01/02 01:52:24;;;;;;;8.93;2.30;;;5.80;99.90;;;;;;5013882;28;20041;-85
2024/01/02 01:54:50;;;;;;;9.02;2.10;;;5.90;99.90;;;;;;4998359;28;20322;-85
2024/01/02 01:57:17;;;;;;;7.38;2.10;;;6.80;99.90;;;;;;5014024;28;20316;-85
2024/01/02 01:59:43;;;;;;;8.10;2.05;;;6.00;99.90;;;;;;5035977;28;20049;-85
2024/01/02 02:02:10;;;;;;;5.97;1.88;;;6.10;99.90;;;;;;4981658;28;20387;-85
2024/01/02 02:04:41;;;;;;;11.25;2.33;;;7.00;99.90;;;;;;4996725;28;20104;-86
2024/01/02 02:07:07;;;;;;;9.48;2.35;;;6.90;99.90;;;;;;5014202;28;20522;-85
2024/01/02 02:09:33;;;;;;;9.43;2.47;;;6.00;99.90;;;;;;5011711;28;20087;-85
2024/01/02 02:11:59;;;;;;;8.68;2.20;;;;;;;;;;5011321;28;20124;-85
2024/01/02 02:14:25;;;;;;;11.20;2.75;;;5.90;99.90;;;;;;4996742;28;20037;-85
2024/01/02 02:16:51;;;;;;;9.05;2.50;;;7.30;99.90;;;;;;4993784;28;20099;-86
2024/01/02 02:19:17;;;;;;;8.13;2.20;;;7.00;99.90;;;;;;4983701;28;20053;-85
2024/01/02 02:21:44;;;;;;;11.40;2.55;;;6.10;99.90;;;;;;4989484;28;20058;-85
2024/01/02 02:24:10;;;;;;;9.52;2.33;;;6.70;99.90;;;;;;5004268;28;20033;-85
2024/01/02 02:26:36;;;;;;;10.27;3.05;;;6.10;99.90;;;;;;4979149;28;20040;-87
2024/01/02 02:29:01;;;;;;;11.13;2.53;;;6.10;99.90;;;;;;4991677;28;20510;-85
2024/01/02 02:31:27;;;;;;;11.15;2.75;;;6.90;99.90;;;;;;4996093;28;20087;-85
2024/01/02 02:33:53;;;;;;;11.77;3.13;;;5.90;99.90;;;;;;4993406;28;20128;-85
2024/01/02 02:36:18;;;;;;;8.60;2.60;;;6.00;99.90;;;;;;4978516;28;20041;-85
2024/01/02 02:38:44;;;;;;;10.15;2.70;;;6.20;99.90;;;;;;4995957;28;20152;-85
2024/01/02 02:41:10;;;;;;;9.93;3.30;;;6.50;99.90;;;;;;4993083;28;20068;-86
2024/01/02 02:43:36;;;;;;;9.10;2.90;;;6.10;99.90;;;;;;5005851;28;20537;-85
2024/01/02 02:46:01;;;;;;;8.77;2.83;;;6.60;99.90;;;;;;4993915;28;20768;-85
2024/01/02 02:48:27;;;;;;;9.38;2.97;;;6.20;99.90;;;;;;5008564;28;20040;-86
2024/01/02 02:50:53;;;;;;;9.60;2.80;;;6.00;99.90;;;;;;4995958;28;20034;-85
2024/01/02 02:53:19;;;;;;;10.40;3.22;;;6.10;99.90;;;;;;4979304;28;20561;-85
2024/01/02 02:55:45;;;;;;;11.00;2.80;;;7.00;99.90;;;;;;4997603;28;20272;-85
2024/01/02 02:58:10;;;;;;;9.57;3.15;;;6.00;99.90;;;;;;4987511;28;20070;-85
2024/01/02 03:00:36;;;;;;;11.50;3.40;;;6.80;99.90;;;;;;4993905;28;20087;-85
2024/01/02 03:03:03;;;;;;;9.90;2.88;;;7.00;99.90;;;;;;4994758;28;20080;-85
2024/01/02 03:05:29;;;;;;;10.85;3.20;;;6.30;99.90;;;;;;5030205;28;20375;-85
2024/01/02 03:07:56;;;;;;;11.73;3.20;;;7.00;99.90;;;;;;4990850;28;20045;-85
2024/01/02 03:10:22;;;;;;;9.52;3.38;;;6.10;99.90;;;;;;5005523;28;20045;-85
2024/01/02 03:12:47;;;;;;;10.80;3.03;;;6.30;99.90;;;;;;5060004;28;20068;-85
2024/01/02 03:15:14;;;;;;;11.00;3.10;;;6.30;99.90;;;;;;4993590;28;20503;-85
2024/01/02 03:17:40;;;;;;;9.98;3.13;;;6.10;99.90;;;;;;4988489;28;20061;-85
2024/01/02 03:20:06;;;;;;;11.25;3.45;;;7.00;99.90;;;;;;4995208;28;20057;-85
2024/01/02 03:22:32;;;;;;;10.25;3.25;;;6.20;99.90;;;;;;4977347;28;20037;-85
2024/01/02 03:24:58;;;;;;;9.45;3.17;;;6.30;99.90;;;;;;5013412;28;20080;-85
2024/01/02 03:27:23;;;;;;;10.52;3.92;;;7.30;99.90;;;;;;4981596;28;20395;-85
2024/01/02 03:29:49;;;;;;;10.52;3.88;;;7.20;99.90;;;;;;5011730;28;20107;-85
2024/01/02 03:32:15;;;;;;;9.82;3.20;;;7.00;99.90;;;;;;5012337;28;20048;-85
2024/01/02 03:34:40;;;;;;;12.35;3.00;;;6.20;99.90;;;;;;5012717;28;20076;-85
2024/01/02 03:37:08;;;;;;;12.50;3.45;;;6.30;99.90;;;;;;4993263;28;20046;-84
2024/01/02 03:39:33;;;;;;;10.00;2.90;;;7.50;99.90;;;;;;5012880;28;20120;-84
2024/01/02 03:41:59;;;;;;;13.80;3.55;;;7.00;99.90;;;;;;4985617;28;20582;-85
2024/01/02 03:44:25;;;;;;;9.48;3.00;;;6.90;99.90;;;;;;4991772;28;20543;-85
2024/01/02 03:46:51;;;;;;;10.00;3.25;;;7.30;99.90;;;;;;4996671;28;20061;-85
2024/01/02 03:49:17;;;;;;;10.13;3.20;;;7.20;99.90;;;;;;5011212;28;20104;-85
2024/01/02 03:51:43;;;;;;;10.15;3.72;;;6.30;99.90;;;;;;4971679;28;20045;-85
2024/01/02 03:54:09;;;;;;;8.82;2.80;;;6.60;99.90;;;;;;5012287;28;20045;-85
2024/01/02 03:56:34;;;;;;;9.35;2.83;;;6.60;99.90;;;;;;4992205;28;20049;-84
2024/01/02 03:59:00;;;;;;;10.32;2.67;;;6.20;99.90;;;;;;4981574;28;20120;-85
2024/01/02 04:01:26;;;;;;;11.45;3.17;;;7.40;99.90;;;;;;4990104;28;20409;-85
2024/01/02 04:03:51;;;;;;;9.68;2.72;;;6.30;99.90;;;;;;4996143;28;20044;-85
2024/01/02 04:06:17;;;;;;;9.13;2.53;;;6.20;99.90;;;;;;4993626;28;20125;-85
2024/01/02 04:08:43;;;;;;;8.20;2.78;;;7.40;99.90;;;;;;5028249;28;20067;-85
2024/01/02 04:11:08;;;;;;;11.00;2.83;;;7.10;99.90;;;;;;4975206;28;20644;-85
2024/01/02 04:13:34;;;;;;;8.98;2.40;;;6.30;99.90;;;;;;4994636;28;20041;-85
2024/01/02 04:16:00;;;;;;;11.45;3.05;;;6.30;99.90;;;;;;4993358;28;20029;-85
2024/01/02 04:18:25;;;;;;;10.38;2.75;;;6.20;99.90;;;;;;4995094;28;20551;-85
2024/01/02 04:20:51;;;;;;;8.55;2.92;;;6.90;99.90;;;;;;4973907;28;20046;-84
2024/01/02 04:23:17;;;;;;;9.45;2.67;;;7.00;99.90;;;;;;5010566;28;20152;-84
2024/01/02 04:25:42;;;;;;;8.50;2.50;;;6.30;99.90;;;;;;4995130;28;20128;-85
2024/01/02 04:28:08;;;;;;;10.00;2.83;;;6.20;99.90;;;;;;5006652;28;20042;-85
2024/01/02 04:30:34;;;;;;;9.50;2.50;;;6.40;99.90;;;;;;5010860;28;20449;-85
2024/01/02 04:33:00;;;;;;;11.23;3.33;;;7.50;99.90;;;;;;5010931;28;20567;-85
2024/01/02 04:35:26;;;;;;;8.65;2.60;;;6.20;99.90;;;;;;5011601;28;20041;-85
2024/01/02 04:37:51;;;;;;;8.05;2.40;;;6.50;99.90;;;;;;4974189;28;20498;-85
2024/01/02 04:40:17;;;;;;;6.38;2.40;;;6.50;99.90;;;;;;5010616;28;20494;-84
2024/01/02 04:42:43;;;;;;;9.10;2.60;;;6.20;99.90;;;;;;4988516;28;20078;-84
2024/01/02 04:45:09;;;;;;;7.95;2.45;;;6.50;99.90;;;;;;4991977;28;20034;-84
2024/01/02 04:47:36;;;;;;;9.30;2.55;;;6.50;99.90;;;;;;4999997;28;20042;-84
2024/01/02 04:50:03;;;;;;;7.97;2.70;;;6.40;99.90;;;;;;4992976;28;20038;-84
2024/01/02 04:52:30;;;;;;;8.27;2.53;;;6.30;99.90;;;;;;4994282;28;20029;-85
2024/01/02 04:54:55;;;;;;;6.93;2.30;;;6.80;99.90;;;;;;5028287;28;20037;-85
2024/01/02 04:57:21;;;;;;;10.15;2.90;;;6.40;99.90;;;;;;5011173;28;20529;-85
2024/01/02 04:59:49;;;;;;;6.85;2.25;;;7.50;99.90;;;;;;5007498;28;20429;-85
2024/01/02 05:02:15;;;;;;;7.75;2.45;;;6.80;99.90;;;;;;4994265;28;20117;-85
2024/01/02 05:04:41;;;;;;;10.88;2.60;;;7.00;99.90;;;;;;4995090;28;20116;-85
2024/01/02 05:07:07;;;;;;;5.03;2.03;;;6.70;99.90;;;;;;5043752;28;20050;-85
2024/01/02 05:09:33;;;;;;;7.63;2.42;;;6.40;99.90;;;;;;5009554;28;20049;-84
2024/01/02 05:11:58;;;;;;;7.85;2.13;;;6.30;99.90;;;;;;4987985;28;20407;-85
2024/01/02 05:14:24;;;;;;;9.38;2.50;;;6.60;99.90;;;;;;4988967;28;20084;-84
2024/01/02 05:16:50;;;;;;;7.82;2.33;;;7.30;99.90;;;;;;4994439;28;20044;-85
2024/01/02 05:19:16;;;;;;;10.00;2.10;;;7.40;99.90;;;;;;4988778;28;20038;-85
2024/01/02 05:21:42;;;;;;;7.22;2.10;;;6.80;99.90;;;;;;5001517;28;20449;-86
2024/01/02 05:24:07;;;;;;;6.55;1.90;;;7.00;99.90;;;;;;5000578;28;20498;-85
2024/01/02 05:27:08;;;;;;;6.68;2.03;;;6.30;99.90;;;;;;5016608;28;20037;-87
2024/01/02 05:29:36;;;;;;;7.28;2.00;;;6.40;99.90;;;;;;5016564;28;20498;-85
2024/01/02 05:32:03;;;;;;;6.03;2.05;;;6.30;99.90;;;;;;4994120;28;20042;-85
2024/01/02 05:34:29;;;;;;;8.93;2.25;;;6.30;99.90;;;;;;5009333;28;20042;-85
2024/01/02 05:36:55;;;;;;;6.78;2.00;;;6.70;99.90;;;;;;5000731;28;20134;-84
2024/01/02 05:39:21;;;;;;;4.53;1.77;;;6.60;99.90;;;;;;5000144;28;20080;-85
2024/01/02 05:41:47;;;;;;;5.63;2.00;;;7.30;99.90;;;;;;5015638;28;20068;-85
2024/01/02 05:44:13;;;;;;;5.72;1.90;;;6.50;99.90;;;;;;4993688;28;20037;-85
2024/01/02 05:46:38;;;;;;;7.40;1.90;;;6.40;99.90;;;;;;4993906;28;20044;-86
2024/01/02 05:49:04;;;;;;;7.28;2.20;;;7.80;99.90;;;;;;4982310;28;20041;-85
2024/01/02 05:51:30;;;;;;;6.68;1.70;;;7.00;99.90;;;;;;4996974;28;20122;-85
2024/01/02 05:53:56;;;;;;;5.53;1.83;;;7.30;99.90;;;;;;5024309;28;20762;-85
2024/01/02 05:56:22;;;;;;;5.38;1.80;;;7.10;99.90;;;;;;4996451;28;20092;-85
2024/01/02 05:58:50;;;;;;;5.93;2.00;;;6.30;99.90;;;;;;5009826;28;20397;-85
2024/01/02 06:01:15;;;;;;;5.78;1.80;;;6.40;99.90;;;;;;5013193;28;20045;-85
2024/01/02 06:03:41;;;;;;;4.78;1.50;;;7.60;99.90;;;;;;4975961;28;20053;-85
2024/01/02 06:06:07;;;;;;;3.78;1.60;;;6.80;99.90;;;;;;5014559;28;20046;-85
2024/01/02 06:08:32;;;;;;;3.28;1.58;;;6.40;99.90;;;;;;4996483;28;20471;-85
2024/01/02 06:10:58;;;;;;;5.10;1.73;;;7.90;99.90;;;;;;5017033;28;20073;-85
2024/01/02 06:13:24;;;;;;;4.90;1.67;;;6.70;99.90;;;;;;5017459;28;20458;-85
2024/01/02 06:15:49;;;;;;;4.55;1.50;;;6.50;99.90;;;;;;4984475;28;20041;-86
2024/01/02 06:18:15;;;;;;;3.40;1.50;;;6.20;99.90;;;;;;4996115;28;20034;-85
2024/01/02 06:20:41;;;;;;;2.30;1.45;;;7.20;99.90;;;;;;4994299;28;20690;-86
2024/01/02 06:23:07;;;;;;;2.88;1.50;;;6.40;99.90;;;;;;4991564;28;20048;-86
2024/01/02 06:25:33;;;;;;;2.75;1.40;;;6.50;99.90;;;;;;4996052;28;20128;-85
2024/01/02 06:27:59;;;;;;;4.38;1.40;;;6.30;99.90;;;;;;4990118;28;20038;-85
2024/01/02 06:30:24;;;;;;;3.28;1.40;;;7.00;99.90;;;;;;4995100;28;20121;-86
2024/01/02 06:32:50;;;;;;;2.17;1.30;;;7.80;99.90;;;;;;5009157;28;20037;-85
2024/01/02 06:35:16;;;;;;;2.60;1.50;;;7.70;99.90;;;;;;5008651;28;20049;-85
2024/01/02 06:37:41;;;;;;;3.72;1.50;;;7.70;99.90;;;;;;4991822;28;20053;-85
2024/01/02 06:40:08;;;;;;;1.85;1.38;;;7.30;99.90;;;;;;4987559;28;20376;-85
2024/01/02 06:42:35;;;;;;;3.60;1.40;;;6.50;99.90;;;;;;5025361;28;20398;-85
2024/01/02 06:45:00;;;;;;;4.43;1.45;;;7.00;99.90;;;;;;5024633;28;20190;-85
2024/01/02 06:47:27;;;;;;;1.73;1.30;;;6.80;99.90;;;;;;4976792;28;20042;-86
2024/01/02 06:49:52;;;;;;;2.25;1.25;;;7.20;99.90;;;;;;5011278;28;20379;-86
2024/01/02 06:52:18;;;;;;;3.03;1.30;;;6.70;99.90;;;;;;4991570;28;20102;-86
2024/01/02 06:54:44;;;;;;;2.22;1.48;;;6.50;99.90;;;;;;5009139;28;20067;-86
2024/01/02 06:57:10;;;;;;;4.07;1.50;;;6.70;99.90;;;;;;4993462;28;20076;-86
2024/01/02 06:59:37;;;;;;;2.72;1.63;;;6.60;99.90;;;;;;4991849;28;20533;-86
2024/01/02 07:02:03;;;;;;;1.75;1.30;;;7.30;99.90;;;;;;5007816;28;20311;-86
2024/01/02 07:04:28;;;;;;;3.13;1.40;;;6.50;99.90;;;;;;5008721;28;20514;-86
2024/01/02 07:06:54;;;;;;;2.55;1.30;;;6.60;99.90;;;;;;4993695;28;20041;-85
2024/01/02 07:09:20;;;;;;;1.45;1.30;;;6.40;99.90;;;;;;4992467;28;20464;-86
2024/01/02 07:11:45;;;;;;;2.15;1.30;;;6.50;99.90;;;;;;4976921;28;20088;-87
2024/01/02 07:14:11;;;;;;;3.55;1.30;;;7.40;99.90;;;;;;5006818;28;20564;-86
2024/01/02 07:16:37;;;;;;;2.22;1.35;;;6.40;99.90;;;;;;5005070;28;20053;-85
2024/01/02 07:19:03;;;;;;;3.15;1.40;;;6.60;99.90;;;;;;5007935;28;20080;-86
2024/01/02 07:21:29;;;;;;;3.60;1.50;;;6.40;99.90;;;;;;4986931;28;20057;-86
2024/01/02 07:23:54;;;;;;;2.03;1.30;;;6.60;99.90;;;;;;5000373;28;20050;-86
2024/01/02 07:26:20;;;;;;;4.40;1.40;;;7.50;99.90;;;;;;4975232;28;20048;-86
2024/01/02 07:28:46;;;;;;;2.50;1.40;;;7.00;99.90;;;;;;5006354;28;20033;-86
2024/01/02 07:31:11;;;;;;;2.60;1.38;;;6.70;99.90;;;;;;4991579;28;20091;-86
2024/01/02 07:33:37;;;;;;;2.65;1.42;;;6.70;99.90;;;;;;5009625;28;20041;-86
2024/01/02 07:36:03;;;;;;;1.83;1.40;;;6.50;99.90;;;;;;5009580;28;20498;-86
2024/01/02 07:38:30;;;;;;;1.83;1.30;;;6.60;99.90;;;;;;4971605;28;20042;-86
2024/01/02 07:40:55;;;;;;;2.40;1.30;;;7.00;99.90;;;;;;5032586;28;20121;-86
2024/01/02 07:43:22;;;;;;;2.05;1.33;;;6.80;99.90;;;;;;5006331;28;20116;-86
2024/01/02 07:45:48;;;;;;;2.35;1.50;;;7.90;99.90;;;;;;4987363;28;20522;-86
2024/01/02 07:48:14;;;;;;;1.75;1.40;;;7.70;99.90;;;;;;5007406;28;20042;-86
2024/01/02 07:50:39;;;;;;;2.28;1.40;;;6.50;99.90;;;;;;4994036;28;20081;-86
2024/01/02 07:53:05;;;;;;;4.10;1.73;;;7.70;99.90;;;;;;4972334;28;20083;-86
2024/01/02 07:55:31;;;;;;;2.90;1.40;;;6.70;99.90;;;;;;4989495;28;20491;-85
2024/01/02 07:57:57;;;;;;;3.30;1.58;;;7.30;99.90;;;;;;4989064;28;20104;-86
2024/01/02 08:00:23;;;;;;;2.83;1.60;;;7.70;99.90;;;;;;4982660;28;20587;-85
2024/01/02 08:02:49;;;;;;;4.10;1.65;;;6.70;99.90;;;;;;5003909;28;20211;-86
2024/01/02 08:05:15;;;;;;;3.10;1.60;;;7.20;99.90;;;;;;4990803;28;20080;-85
2024/01/02 08:07:40;;;;;;;2.88;1.60;;;6.80;99.90;;;;;;5023181;28;20099;-85
2024/01/02 08:10:07;;;;;;;3.35;1.60;;;7.10;99.90;;;;;;4992041;28;20040;-85
2024/01/02 08:12:33;;;;;;;3.63;1.60;;;6.70;99.90;;;;;;4990947;28;20115;-85
2024/01/02 08:14:59;;;;;;;4.18;1.60;;;7.00;99.90;;;;;;5008548;28;20489;-85
2024/01/02 08:17:24;;;;;;;3.08;1.50;;;6.80;99.90;;;;;;4970606;28;20601;-85
2024/01/02 08:19:51;;;;;;;2.90;1.50;;;6.80;99.90;;;;;;5006610;28;20089;-84
2024/01/02 08:22:18;;;;;;;2.38;1.40;;;7.70;99.90;;;;;;4987959;28;20042;-85
2024/01/02 08:24:45;;;;;;;2.17;1.35;;;6.80;99.90;;;;;;5024025;28;20144;-85
2024/01/02 08:27:10;;;;;;;1.55;1.30;;;7.00;99.90;;;;;;4989561;28;22130;-85
2024/01/02 08:29:36;;;;;;;2.40;1.40;;;7.10;99.90;;;;;;4990212;28;20051;-84
2024/01/02 08:32:02;;;;;;;3.63;1.52;;;7.10;99.90;;;;;;4988536;28;20041;-85
2024/01/02 08:34:28;;;;;;;2.50;1.50;;;7.10;99.90;;;;;;4991224;28;20037;-84
2024/01/02 08:36:54;;;;;;;2.08;1.45;;;7.20;99.90;;;;;;4989670;28;20530;-85
2024/01/02 08:39:20;;;;;;;3.20;1.50;;;7.10;99.90;;;;;;5036072;28;20044;-84
2024/01/02 08:41:45;;;;;;;1.75;1.40;;;7.10;99.90;;;;;;5001406;28;20442;-84
2024/01/02 08:44:11;;;;;;;3.10;1.50;;;7.20;99.90;;;;;;4990307;28;20045;-85
2024/01/02 08:46:37;;;;;;;3.78;1.70;;;7.30;99.90;;;;;;4991109;28;20058;-85
2024/01/02 08:49:03;;;;;;;2.83;1.60;;;7.30;99.90;;;;;;4975197;28;20040;-84
2024/01/02 08:51:28;;;;;;;3.88;1.60;;;7.20;99.90;;;;;;4972941;28;20041;-84
2024/01/02 08:53:54;;;;;;;3.85;1.75;;;7.30;99.90;;;;;;4990467;28;20056;-84
2024/01/02 08:56:21;;;;;;;3.53;1.60;;;7.70;99.90;;;;;;5025547;28;20119;-85
2024/01/02 08:58:46;;;;;;;3.90;1.77;;;7.80;99.90;;;;;;4973674;28;20042;-85
2024/01/02 09:01:13;;;;;;;5.78;2.00;;;7.40;99.90;;;;;;5003895;28;20383;-84
2024/01/02 09:03:39;;;;;;;5.78;1.98;;;7.40;99.90;;;;;;4989604;28;20479;-84
2024/01/02 09:06:04;;;;;;;4.88;1.95;;;8.30;99.90;;;;;;5003062;28;20048;-84
2024/01/02 09:08:30;;;;;;;6.80;2.20;;;7.40;99.90;;;;;;4990934;28;20042;-84
2024/01/02 09:10:56;;;;;;;8.27;2.22;;;7.60;99.90;;;;;;4982763;28;20040;-84
2024/01/02 09:13:22;;;;;;;6.18;2.22;;;7.40;99.90;;;;;;5027687;28;20076;-85
2024/01/02 09:15:48;;;;;;;5.90;2.20;;;7.60;99.90;;;;;;5019350;28;20515;-84
2024/01/02 09:18:13;;;;;;;6.90;2.45;;;8.20;99.90;;;;;;5006852;28;20125;-85
2024/01/02 09:20:39;;;;;;;9.13;2.40;;;7.60;99.90;;;;;;4986776;28;20461;-85
2024/01/02 09:23:05;;;;;;;6.13;2.20;;;7.90;99.90;;;;;;4989759;28;20042;-85
2024/01/02 09:25:35;;;;;;;9.10;2.50;;;7.70;99.90;;;;;;4991998;28;20062;-85
2024/01/02 09:28:03;;;;;;;7.97;2.38;;;7.80;99.90;;;;;;5009137;28;20033;-84
2024/01/02 09:30:32;;;;;;;11.52;2.33;;;8.10;99.90;;;;;;5003059;28;20057;-84
2024/01/02 09:32:58;;;;;;;9.80;2.53;;;8.40;99.90;;;;;;4989953;28;20037;-86
2024/01/02 09:35:23;;;;;;;10.70;2.55;;;8.10;99.90;;;;;;5005719;28;20064;-86
2024/01/02 09:37:49;;;;;;;10.30;2.13;;;8.40;99.90;;;;;;5019655;28;20456;-86
2024/01/02 09:40:50;;;;;;;12.00;2.17;;;8.20;99.90;;;;;;5007780;28;20033;-86
2024/01/02 09:43:43;;;;;;;13.43;2.83;;;8.40;99.90;;;;;;5021049;28;20033;-86
2024/01/02 09:46:33;;;;;;;7.57;1.95;;;8.50;99.90;;;;;;5007692;28;20049;-85
2024/01/02 09:49:25;;;;;;;11.13;2.28;;;8.50;99.90;;;;;;5007099;28;20406;-86
2024/01/02 09:52:25;;;;;;;10.60;2.20;;;8.70;99.90;;;;;;5001820;28;20111;-86
2024/01/02 09:54:55;;;;;;;15.95;2.85;;;8.80;99.90;;;;;;5005401;28;20068;-86
2024/01/02 09:58:07;;;;;;;11.50;2.50;;;8.80;99.90;;;;;;5004794;28;20045;-87
2024/01/02 10:00:33;;;;;;;16.10;2.70;;;8.80;99.90;;;;;;4992052;28;20053;-87
2024/01/02 10:03:16;;;;;;;11.23;2.20;;;9.10;99.90;;;;;;5004541;28;20056;-85
2024/01/02 10:06:13;;;;;;;9.65;1.98;;;8.90;99.90;;;;;;5005499;28;20038;-86
2024/01/02 10:08:38;;;;;;;13.23;2.50;;;8.90;99.90;;;;;;5008007;28;21018;-86
2024/01/02 10:11:18;;;;;;;14.70;2.80;;;9.10;99.90;;;;;;5008507;28;20029;-85
2024/01/02 10:14:28;;;;;;;17.20;2.30;;;9.20;99.90;;;;;;5025036;28;20406;-84
2024/01/02 10:17:09;;;;;;;12.40;2.60;;;9.30;99.90;;;;;;5025645;28;20391;-84
2024/01/02 10:19:57;;;;;;;13.57;2.55;;;9.10;99.90;;;;;;5006853;28;20041;-85
2024/01/02 10:22:37;;;;;;;13.00;2.50;;;9.10;99.90;;;;;;5001346;28;20060;-85
2024/01/02 10:25:14;;;;;;;13.95;2.72;;;9.10;99.90;;;;;;5010628;28;20128;-84
2024/01/02 10:27:58;;;;;;;13.82;2.67;;;9.30;99.90;;;;;;5008112;28;20037;-85
2024/01/02 10:30:30;;;;;;;16.00;2.78;;;9.10;99.90;;;;;;4996866;28;20084;-84
2024/01/02 10:33:16;;;;;;;13.68;2.55;;;9.30;99.90;;;;;;5010118;28;20041;-85
2024/01/02 10:35:53;;;;;;;11.13;2.35;;;9.20;99.90;;;;;;5040797;28;20223;-85
2024/01/02 10:38:22;;;;;;;17.05;2.85;;;9.50;99.90;;;;;;5006968;28;20116;-84
2024/01/02 10:41:03;;;;;;;12.77;2.72;;;9.40;99.90;;;;;;5008866;28;20458;-85
2024/01/02 10:43:33;;;;;;;11.70;2.90;;;9.00;99.90;;;;;;5022318;28;20048;-85
2024/01/02 10:46:08;;;;;;;15.15;2.78;;;9.30;99.90;;;;;;5023874;28;20026;-84
2024/01/02 10:48:48;;;;;;;15.77;3.08;;;9.40;99.90;;;;;;5007188;28;20098;-84
2024/01/02 10:51:26;;;;;;;22.35;2.97;;;9.40;99.90;;;;;;5035262;28;20528;-84
2024/01/02 10:54:05;;;;;;;14.07;2.88;;;9.70;99.90;;;;;;5002481;28;20052;-84
2024/01/02 10:57:04;;;;;;;15.63;2.83;;;9.70;99.90;;;;;;5034344;28;20692;-84
2024/01/02 10:59:33;;;;;;;15.15;2.97;;;9.60;99.90;;;;;;5011846;28;20514;-84
2024/01/02 11:02:11;;;;;;;15.38;2.80;;;9.60;99.90;;;;;;5005467;28;20510;-84
2024/01/02 11:05:28;;;;;;;19.23;4.45;;;9.80;99.90;;;;;;5004130;28;20040;-85
2024/01/02 11:08:05;;;;;;;24.88;6.30;;;9.80;99.90;;;;;;4986324;28;20446;-84
2024/01/02 11:10:38;;;;;;;21.90;7.82;;;9.70;99.90;;;;;;5023660;28;20044;-84
2024/01/02 11:13:08;;;;;;;25.58;9.32;;;8.60;99.90;;;;;;5004927;28;20483;-84
2024/01/02 11:15:41;;;;;;;27.83;10.07;;;9.60;99.90;;;;;;4988714;28;20046;-84
2024/01/02 11:18:07;;;;;;;35.50;10.65;;;9.70;99.90;;;;;;5023927;28;20037;-83
2024/01/02 11:20:49;;;;;;;28.30;10.00;;;9.70;99.90;;;;;;5008472;28;20534;-85
2024/01/02 11:23:17;;;;;;;27.35;9.68;;;9.70;99.90;;;;;;5024645;28;20053;-84
2024/01/02 11:25:54;;;;;;;26.98;10.02;;;9.90;99.90;;;;;;4988245;28;20115;-84
2024/01/02 11:28:24;;;;;;;27.98;10.00;;;9.80;99.90;;;;;;5003072;28;20053;-84
2024/01/02 11:30:51;;;;;;;23.08;8.68;;;9.80;99.90;;;;;;5022127;28;20116;-84
2024/01/02 11:33:21;;;;;;;25.73;8.45;;;9.80;99.90;;;;;;5003161;28;20071;-84
2024/01/02 11:36:26;;;;;;;25.50;8.07;;;9.90;99.90;;;;;;5003334;28;20045;-85
2024/01/02 11:39:13;;;;;;;23.92;7.15;;;9.90;99.90;;;;;;5024310;28;20091;-84
2024/01/02 11:41:57;;;;;;;19.88;6.13;;;9.80;99.90;;;;;;5008973;28;20044;-85
2024/01/02 11:44:42;;;;;;;21.85;7.38;;;10.70;99.90;;;;;;5025129;28;20041;-84
2024/01/02 11:47:40;;;;;;;19.92;6.07;;;10.00;99.90;;;;;;5025412;28;20239;-84
2024/01/02 11:50:08;;;;;;;21.40;5.32;;;10.10;99.90;;;;;;5019314;28;20053;-84
2024/01/02 11:52:43;;;;;;;19.60;5.60;;;10.00;99.90;;;;;;5019868;28;20112;-84
2024/01/02 11:55:36;;;;;;;15.48;4.68;;;9.90;99.90;;;;;;4993922;28;20049;-84
2024/01/02 11:58:12;;;;;;;15.10;4.53;;;10.20;99.90;;;;;;5022031;28;20037;-84
2024/01/02 12:00:54;;;;;;;19.50;4.45;;;10.00;99.90;;;;;;5009090;28;20033;-85
2024/01/02 12:03:42;;;;;;;19.20;4.75;;;10.00;99.90;;;;;;5008746;28;20042;-84
2024/01/02 12:06:23;;;;;;;17.40;4.45;;;10.20;99.90;;;;;;5006622;28;20033;-84
2024/01/02 12:08:57;;;;;;;18.67;3.92;;;10.00;99.90;;;;;;5001261;28;20045;-84
2024/01/02 12:11:28;;;;;;;20.85;4.15;;;10.20;99.90;;;;;;5012534;28;20517;-85
2024/01/02 12:14:22;;;;;;;15.88;3.85;;;10.20;99.90;;;;;;5004438;28;20049;-85
2024/01/02 12:16:49;;;;;;;15.40;3.70;;;10.30;99.90;;;;;;5000384;28;20044;-84
2024/01/02 12:19:22;;;;;;;19.23;4.18;;;10.30;99.90;;;;;;4984105;28;20052;-85
2024/01/02 12:21:49;;;;;;;14.32;4.10;;;10.00;99.90;;;;;;5020234;28;20073;-85
2024/01/02 12:24:16;;;;;;;18.60;4.00;;;10.00;99.90;;;;;;5003251;28;20048;-85
2024/01/02 12:26:44;;;;;;;22.40;4.38;;;10.10;99.90;;;;;;4985881;28;20041;-85
2024/01/02 12:29:14;;;;;;;16.98;4.00;;;10.10;99.90;;;;;;4999960;28;20038;-84
2024/01/02 12:31:49;;;;;;;15.30;3.83;;;10.20;99.90;;;;;;5004199;28;20052;-85
2024/01/02 12:34:22;;;;;;;15.68;3.55;;;10.20;99.90;;;;;;5000679;28;20071;-84
2024/01/02 12:37:08;;;;;;;15.27;3.58;;;10.10;99.90;;;;;;5001508;28;20457;-85
2024/01/02 12:39:39;;;;;;;19.35;4.07;;;10.20;99.90;;;;;;5002538;28;20061;-85
2024/01/02 12:42:08;;;;;;;21.42;4.32;;;10.20;99.90;;;;;;4987336;28;20041;-85
2024/01/02 12:44:37;;;;;;;14.68;3.05;;;10.10;99.90;;;;;;5019306;28;20486;-85
2024/01/02 12:47:09;;;;;;;16.52;3.53;;;9.90;99.90;;;;;;5029390;28;20042;-85
2024/01/02 12:49:45;;;;;;;14.80;3.30;;;9.90;99.90;;;;;;5002185;28;20068;-85
2024/01/02 12:52:20;;;;;;;14.68;3.22;;;10.20;99.90;;;;;;5017619;28;20046;-85
2024/01/02 12:54:48;;;;;;;15.35;3.53;;;10.10;99.90;;;;;;5022108;28;20041;-84
2024/01/02 12:57:15;;;;;;;17.70;3.83;;;10.00;99.90;;;;;;5007673;28;20091;-84
2024/01/02 12:59:41;;;;;;;15.88;3.60;;;10.00;99.90;;;;;;5007298;28;20069;-84
2024/01/02 13:02:07;;;;;;;18.20;3.28;;;9.90;99.90;;;;;;5004803;28;20040;-85